sensor_id;sensor_type;location;lat;lon;timestamp;P1;durP1;ratioP1;P2;durP2;ratioP2
36817;SDS011;22761;51.542;16.450;2023-11-21T00:00:15;2.10;;;1.10;;
36817;SDS011;22761;51.542;16.450;2023-11-21T00:03:04;2.20;;;1.20;;
36817;SDS011;22761;51.542;16.450;2023-11-21T00:05:33;1.80;;;1.20;;
36817;SDS011;22761;51.542;16.450;2023-11-21T00:08:01;3.70;;;1.50;;
36817;SDS011;22761;51.542;16.450;2023-11-21T00:10:29;2.40;;;1.30;;
36817;SDS011;22761;51.542;16.450;2023-11-21T00:12:57;2.40;;;1.20;;
36817;SDS011;22761;51.542;16.450;2023-11-21T00:15:26;6.70;;;2.30;;
36817;SDS011;22761;51.542;16.450;2023-11-21T00:17:54;3.80;;;1.10;;
36817;SDS011;22761;51.542;16.450;2023-11-21T00:20:22;4.10;;;1.40;;
36817;SDS011;22761;51.542;16.450;2023-11-21T00:22:50;3.60;;;1.70;;
36817;SDS011;22761;51.542;16.450;2023-11-21T00:25:19;3.40;;;1.80;;
36817;SDS011;22761;51.542;16.450;2023-11-21T00:27:47;2.80;;;1.70;;
36817;SDS011;22761;51.542;16.450;2023-11-21T00:30:16;4.10;;;2.30;;
36817;SDS011;22761;51.542;16.450;2023-11-21T00:32:44;4.20;;;2.50;;
36817;SDS011;22761;51.542;16.450;2023-11-21T00:35:13;4.70;;;3.00;;
36817;SDS011;22761;51.542;16.450;2023-11-21T00:37:41;4.70;;;2.90;;
36817;SDS011;22761;51.542;16.450;2023-11-21T00:40:10;7.00;;;3.20;;
36817;SDS011;22761;51.542;16.450;2023-11-21T00:42:39;3.50;;;2.80;;
36817;SDS011;22761;51.542;16.450;2023-11-21T00:45:08;3.50;;;2.70;;
36817;SDS011;22761;51.542;16.450;2023-11-21T00:47:36;4.90;;;3.10;;
36817;SDS011;22761;51.542;16.450;2023-11-21T00:50:07;4.70;;;3.20;;
36817;SDS011;22761;51.542;16.450;2023-11-21T00:52:36;3.50;;;2.60;;
36817;SDS011;22761;51.542;16.450;2023-11-21T00:55:05;6.40;;;3.50;;
36817;SDS011;22761;51.542;16.450;2023-11-21T00:57:35;4.10;;;3.10;;
36817;SDS011;22761;51.542;16.450;2023-11-21T01:00:04;5.40;;;2.60;;
36817;SDS011;22761;51.542;16.450;2023-11-21T01:02:41;4.60;;;2.70;;
36817;SDS011;22761;51.542;16.450;2023-11-21T01:05:11;3.30;;;2.40;;
36817;SDS011;22761;51.542;16.450;2023-11-21T01:07:40;4.20;;;2.70;;
36817;SDS011;22761;51.542;16.450;2023-11-21T01:10:09;5.40;;;3.30;;
36817;SDS011;22761;51.542;16.450;2023-11-21T01:12:38;2.70;;;1.90;;
36817;SDS011;22761;51.542;16.450;2023-11-21T01:15:06;4.50;;;2.00;;
36817;SDS011;22761;51.542;16.450;2023-11-21T01:17:35;4.30;;;1.90;;
36817;SDS011;22761;51.542;16.450;2023-11-21T01:20:04;2.60;;;1.90;;
36817;SDS011;22761;51.542;16.450;2023-11-21T01:22:40;3.60;;;2.30;;
36817;SDS011;22761;51.542;16.450;2023-11-21T01:25:08;6.30;;;2.20;;
36817;SDS011;22761;51.542;16.450;2023-11-21T01:27:38;6.80;;;2.00;;
36817;SDS011;22761;51.542;16.450;2023-11-21T01:30:06;2.70;;;1.60;;
36817;SDS011;22761;51.542;16.450;2023-11-21T01:32:38;4.50;;;1.80;;
36817;SDS011;22761;51.542;16.450;2023-11-21T01:35:08;2.50;;;1.60;;
36817;SDS011;22761;51.542;16.450;2023-11-21T01:37:38;3.10;;;1.80;;
36817;SDS011;22761;51.542;16.450;2023-11-21T01:40:07;3.40;;;1.70;;
36817;SDS011;22761;51.542;16.450;2023-11-21T01:42:38;4.70;;;1.90;;
36817;SDS011;22761;51.542;16.450;2023-11-21T01:45:08;2.50;;;1.70;;
36817;SDS011;22761;51.542;16.450;2023-11-21T01:47:37;3.10;;;1.40;;
36817;SDS011;22761;51.542;16.450;2023-11-21T01:50:06;4.30;;;2.00;;
36817;SDS011;22761;51.542;16.450;2023-11-21T01:52:39;3.10;;;1.80;;
36817;SDS011;22761;51.542;16.450;2023-11-21T01:55:09;4.20;;;2.00;;
36817;SDS011;22761;51.542;16.450;2023-11-21T01:57:37;4.30;;;2.20;;
36817;SDS011;22761;51.542;16.450;2023-11-21T02:00:06;3.50;;;1.70;;
36817;SDS011;22761;51.542;16.450;2023-11-21T02:02:44;3.30;;;1.50;;
36817;SDS011;22761;51.542;16.450;2023-11-21T02:05:14;2.80;;;1.70;;
36817;SDS011;22761;51.542;16.450;2023-11-21T02:07:43;4.40;;;1.50;;
36817;SDS011;22761;51.542;16.450;2023-11-21T02:10:12;2.60;;;1.50;;
36817;SDS011;22761;51.542;16.450;2023-11-21T02:12:42;2.80;;;1.70;;
36817;SDS011;22761;51.542;16.450;2023-11-21T02:15:12;2.90;;;1.60;;
36817;SDS011;22761;51.542;16.450;2023-11-21T02:17:54;2.30;;;1.50;;
36817;SDS011;22761;51.542;16.450;2023-11-21T02:20:23;2.50;;;1.40;;
36817;SDS011;22761;51.542;16.450;2023-11-21T02:22:54;2.70;;;1.50;;
36817;SDS011;22761;51.542;16.450;2023-11-21T02:25:27;2.50;;;1.90;;
36817;SDS011;22761;51.542;16.450;2023-11-21T02:27:57;2.20;;;1.70;;
36817;SDS011;22761;51.542;16.450;2023-11-21T02:30:26;2.00;;;1.40;;
36817;SDS011;22761;51.542;16.450;2023-11-21T02:33:00;3.40;;;1.70;;
36817;SDS011;22761;51.542;16.450;2023-11-21T02:35:29;2.30;;;1.70;;
36817;SDS011;22761;51.542;16.450;2023-11-21T02:38:00;2.10;;;1.30;;
36817;SDS011;22761;51.542;16.450;2023-11-21T02:40:28;2.30;;;1.00;;
36817;SDS011;22761;51.542;16.450;2023-11-21T02:42:57;2.30;;;1.00;;
36817;SDS011;22761;51.542;16.450;2023-11-21T02:45:27;1.30;;;0.90;;
36817;SDS011;22761;51.542;16.450;2023-11-21T02:47:56;1.10;;;0.90;;
36817;SDS011;22761;51.542;16.450;2023-11-21T02:50:26;2.30;;;0.90;;
36817;SDS011;22761;51.542;16.450;2023-11-21T02:52:55;2.40;;;1.00;;
36817;SDS011;22761;51.542;16.450;2023-11-21T02:55:28;2.00;;;1.10;;
36817;SDS011;22761;51.542;16.450;2023-11-21T02:57:57;1.30;;;0.90;;
36817;SDS011;22761;51.542;16.450;2023-11-21T03:00:25;0.90;;;0.70;;
36817;SDS011;22761;51.542;16.450;2023-11-21T03:02:55;1.70;;;1.00;;
36817;SDS011;22761;51.542;16.450;2023-11-21T03:05:26;1.10;;;0.80;;
36817;SDS011;22761;51.542;16.450;2023-11-21T03:07:54;2.00;;;0.80;;
36817;SDS011;22761;51.542;16.450;2023-11-21T03:10:23;3.60;;;1.10;;
36817;SDS011;22761;51.542;16.450;2023-11-21T03:12:51;1.10;;;1.00;;
36817;SDS011;22761;51.542;16.450;2023-11-21T03:15:20;1.50;;;0.90;;
36817;SDS011;22761;51.542;16.450;2023-11-21T03:17:49;1.20;;;0.70;;
36817;SDS011;22761;51.542;16.450;2023-11-21T03:20:17;1.00;;;0.90;;
36817;SDS011;22761;51.542;16.450;2023-11-21T03:22:45;1.10;;;0.90;;
36817;SDS011;22761;51.542;16.450;2023-11-21T03:25:15;5.60;;;1.00;;
36817;SDS011;22761;51.542;16.450;2023-11-21T03:27:45;1.80;;;0.90;;
36817;SDS011;22761;51.542;16.450;2023-11-21T03:30:13;3.10;;;0.90;;
36817;SDS011;22761;51.542;16.450;2023-11-21T03:32:42;1.00;;;0.70;;
36817;SDS011;22761;51.542;16.450;2023-11-21T03:35:10;2.30;;;1.00;;
36817;SDS011;22761;51.542;16.450;2023-11-21T03:37:39;2.10;;;1.10;;
36817;SDS011;22761;51.542;16.450;2023-11-21T03:40:10;2.40;;;1.10;;
36817;SDS011;22761;51.542;16.450;2023-11-21T03:42:40;1.30;;;0.90;;
36817;SDS011;22761;51.542;16.450;2023-11-21T03:45:09;1.50;;;0.80;;
36817;SDS011;22761;51.542;16.450;2023-11-21T03:47:38;1.50;;;0.80;;
36817;SDS011;22761;51.542;16.450;2023-11-21T03:50:07;1.70;;;1.30;;
36817;SDS011;22761;51.542;16.450;2023-11-21T03:52:39;1.20;;;1.00;;
36817;SDS011;22761;51.542;16.450;2023-11-21T03:55:07;2.00;;;1.20;;
36817;SDS011;22761;51.542;16.450;2023-11-21T03:57:36;1.10;;;1.00;;
36817;SDS011;22761;51.542;16.450;2023-11-21T04:00:04;1.30;;;1.20;;
36817;SDS011;22761;51.542;16.450;2023-11-21T04:02:39;1.50;;;1.10;;
36817;SDS011;22761;51.542;16.450;2023-11-21T04:05:08;2.50;;;1.40;;
36817;SDS011;22761;51.542;16.450;2023-11-21T04:07:37;2.80;;;1.50;;
36817;SDS011;22761;51.542;16.450;2023-11-21T04:10:07;2.60;;;1.50;;
36817;SDS011;22761;51.542;16.450;2023-11-21T04:12:41;2.90;;;1.40;;
36817;SDS011;22761;51.542;16.450;2023-11-21T04:15:09;2.80;;;1.50;;
36817;SDS011;22761;51.542;16.450;2023-11-21T04:17:38;3.70;;;1.80;;
36817;SDS011;22761;51.542;16.450;2023-11-21T04:20:07;5.70;;;4.30;;
36817;SDS011;22761;51.542;16.450;2023-11-21T04:22:41;2.90;;;1.70;;
36817;SDS011;22761;51.542;16.450;2023-11-21T04:25:13;3.30;;;1.80;;
36817;SDS011;22761;51.542;16.450;2023-11-21T04:27:43;2.80;;;2.20;;
36817;SDS011;22761;51.542;16.450;2023-11-21T04:30:12;2.80;;;1.80;;
36817;SDS011;22761;51.542;16.450;2023-11-21T04:32:41;3.40;;;2.40;;
36817;SDS011;22761;51.542;16.450;2023-11-21T04:35:10;3.30;;;2.50;;
36817;SDS011;22761;51.542;16.450;2023-11-21T04:37:38;4.00;;;2.60;;
36817;SDS011;22761;51.542;16.450;2023-11-21T04:40:06;4.20;;;2.90;;
36817;SDS011;22761;51.542;16.450;2023-11-21T04:42:35;4.20;;;2.60;;
36817;SDS011;22761;51.542;16.450;2023-11-21T04:45:05;3.80;;;2.20;;
36817;SDS011;22761;51.542;16.450;2023-11-21T04:47:37;3.80;;;2.70;;
36817;SDS011;22761;51.542;16.450;2023-11-21T04:50:06;3.50;;;2.60;;
36817;SDS011;22761;51.542;16.450;2023-11-21T04:52:34;3.00;;;2.40;;
36817;SDS011;22761;51.542;16.450;2023-11-21T04:55:02;2.30;;;2.10;;
36817;SDS011;22761;51.542;16.450;2023-11-21T04:57:31;3.10;;;2.10;;
36817;SDS011;22761;51.542;16.450;2023-11-21T04:59:59;3.10;;;2.20;;
36817;SDS011;22761;51.542;16.450;2023-11-21T05:02:28;5.00;;;2.70;;
36817;SDS011;22761;51.542;16.450;2023-11-21T05:05:02;3.90;;;2.20;;
36817;SDS011;22761;51.542;16.450;2023-11-21T05:07:34;3.80;;;2.60;;
36817;SDS011;22761;51.542;16.450;2023-11-21T05:10:05;3.40;;;2.40;;
36817;SDS011;22761;51.542;16.450;2023-11-21T05:12:37;2.80;;;2.30;;
36817;SDS011;22761;51.542;16.450;2023-11-21T05:15:07;3.20;;;2.70;;
36817;SDS011;22761;51.542;16.450;2023-11-21T05:17:39;2.70;;;2.30;;
36817;SDS011;22761;51.542;16.450;2023-11-21T05:20:11;3.50;;;2.60;;
36817;SDS011;22761;51.542;16.450;2023-11-21T05:22:41;3.20;;;2.30;;
36817;SDS011;22761;51.542;16.450;2023-11-21T05:25:10;4.80;;;2.50;;
36817;SDS011;22761;51.542;16.450;2023-11-21T05:27:39;3.00;;;2.30;;
36817;SDS011;22761;51.542;16.450;2023-11-21T05:30:07;3.80;;;2.70;;
36817;SDS011;22761;51.542;16.450;2023-11-21T05:32:40;2.90;;;2.40;;
36817;SDS011;22761;51.542;16.450;2023-11-21T05:35:12;3.50;;;2.30;;
36817;SDS011;22761;51.542;16.450;2023-11-21T05:37:45;3.00;;;2.40;;
36817;SDS011;22761;51.542;16.450;2023-11-21T05:40:14;4.80;;;2.40;;
36817;SDS011;22761;51.542;16.450;2023-11-21T05:42:43;4.40;;;3.00;;
36817;SDS011;22761;51.542;16.450;2023-11-21T05:45:12;3.00;;;2.10;;
36817;SDS011;22761;51.542;16.450;2023-11-21T05:47:41;5.30;;;3.00;;
36817;SDS011;22761;51.542;16.450;2023-11-21T05:50:15;3.30;;;2.50;;
36817;SDS011;22761;51.542;16.450;2023-11-21T05:52:44;3.70;;;2.30;;
36817;SDS011;22761;51.542;16.450;2023-11-21T05:55:14;3.70;;;2.60;;
36817;SDS011;22761;51.542;16.450;2023-11-21T05:57:43;3.30;;;2.40;;
36817;SDS011;22761;51.542;16.450;2023-11-21T06:00:12;3.60;;;2.70;;
36817;SDS011;22761;51.542;16.450;2023-11-21T06:02:53;4.10;;;2.90;;
36817;SDS011;22761;51.542;16.450;2023-11-21T06:05:23;3.60;;;2.40;;
36817;SDS011;22761;51.542;16.450;2023-11-21T06:07:54;4.40;;;2.80;;
36817;SDS011;22761;51.542;16.450;2023-11-21T06:10:27;4.30;;;2.70;;
36817;SDS011;22761;51.542;16.450;2023-11-21T06:12:57;2.80;;;2.50;;
36817;SDS011;22761;51.542;16.450;2023-11-21T06:15:30;3.00;;;2.30;;
36817;SDS011;22761;51.542;16.450;2023-11-21T06:17:58;3.90;;;2.70;;
36817;SDS011;22761;51.542;16.450;2023-11-21T06:20:28;3.60;;;2.50;;
36817;SDS011;22761;51.542;16.450;2023-11-21T06:22:56;6.30;;;2.60;;
36817;SDS011;22761;51.542;16.450;2023-11-21T06:25:24;4.60;;;2.70;;
36817;SDS011;22761;51.542;16.450;2023-11-21T06:27:53;4.80;;;2.80;;
36817;SDS011;22761;51.542;16.450;2023-11-21T06:30:22;23.50;;;8.60;;
36817;SDS011;22761;51.542;16.450;2023-11-21T06:32:51;19.40;;;7.00;;
36817;SDS011;22761;51.542;16.450;2023-11-21T06:35:21;5.40;;;3.10;;
36817;SDS011;22761;51.542;16.450;2023-11-21T06:37:50;4.70;;;3.00;;
36817;SDS011;22761;51.542;16.450;2023-11-21T06:40:19;7.30;;;3.00;;
36817;SDS011;22761;51.542;16.450;2023-11-21T06:42:48;4.40;;;2.70;;
36817;SDS011;22761;51.542;16.450;2023-11-21T06:45:18;4.10;;;3.00;;
36817;SDS011;22761;51.542;16.450;2023-11-21T06:47:48;2.80;;;2.00;;
36817;SDS011;22761;51.542;16.450;2023-11-21T06:50:17;4.50;;;3.30;;
36817;SDS011;22761;51.542;16.450;2023-11-21T06:52:46;4.20;;;3.00;;
36817;SDS011;22761;51.542;16.450;2023-11-21T06:55:14;4.80;;;3.10;;
36817;SDS011;22761;51.542;16.450;2023-11-21T06:57:44;4.30;;;2.70;;
36817;SDS011;22761;51.542;16.450;2023-11-21T07:00:13;3.50;;;2.30;;
36817;SDS011;22761;51.542;16.450;2023-11-21T07:02:44;3.10;;;2.60;;
36817;SDS011;22761;51.542;16.450;2023-11-21T07:05:12;2.70;;;2.50;;
36817;SDS011;22761;51.542;16.450;2023-11-21T07:07:42;3.90;;;2.40;;
36817;SDS011;22761;51.542;16.450;2023-11-21T07:10:11;3.40;;;2.50;;
36817;SDS011;22761;51.542;16.450;2023-11-21T07:12:40;4.00;;;2.80;;
36817;SDS011;22761;51.542;16.450;2023-11-21T07:15:09;2.90;;;2.30;;
36817;SDS011;22761;51.542;16.450;2023-11-21T07:17:37;2.90;;;2.50;;
36817;SDS011;22761;51.542;16.450;2023-11-21T07:20:08;2.50;;;2.00;;
36817;SDS011;22761;51.542;16.450;2023-11-21T07:22:36;2.70;;;2.30;;
36817;SDS011;22761;51.542;16.450;2023-11-21T07:25:05;3.10;;;2.70;;
36817;SDS011;22761;51.542;16.450;2023-11-21T07:27:35;6.60;;;3.00;;
36817;SDS011;22761;51.542;16.450;2023-11-21T07:30:04;4.70;;;3.10;;
36817;SDS011;22761;51.542;16.450;2023-11-21T07:32:33;6.90;;;4.10;;
36817;SDS011;22761;51.542;16.450;2023-11-21T07:35:02;6.20;;;3.70;;
36817;SDS011;22761;51.542;16.450;2023-11-21T07:37:30;3.30;;;2.40;;
36817;SDS011;22761;51.542;16.450;2023-11-21T07:39:58;7.10;;;3.20;;
36817;SDS011;22761;51.542;16.450;2023-11-21T07:42:27;4.80;;;3.10;;
36817;SDS011;22761;51.542;16.450;2023-11-21T07:44:55;5.50;;;2.60;;
36817;SDS011;22761;51.542;16.450;2023-11-21T07:47:24;3.30;;;2.90;;
36817;SDS011;22761;51.542;16.450;2023-11-21T07:49:55;3.10;;;2.80;;
36817;SDS011;22761;51.542;16.450;2023-11-21T07:52:24;3.70;;;2.60;;
36817;SDS011;22761;51.542;16.450;2023-11-21T07:54:52;5.10;;;2.70;;
36817;SDS011;22761;51.542;16.450;2023-11-21T07:57:20;5.50;;;2.60;;
36817;SDS011;22761;51.542;16.450;2023-11-21T07:59:48;7.00;;;5.30;;
36817;SDS011;22761;51.542;16.450;2023-11-21T08:02:16;7.40;;;5.30;;
36817;SDS011;22761;51.542;16.450;2023-11-21T08:04:45;9.10;;;6.00;;
36817;SDS011;22761;51.542;16.450;2023-11-21T08:07:17;7.70;;;6.10;;
36817;SDS011;22761;51.542;16.450;2023-11-21T08:09:45;9.40;;;6.90;;
36817;SDS011;22761;51.542;16.450;2023-11-21T08:12:15;11.50;;;7.60;;
36817;SDS011;22761;51.542;16.450;2023-11-21T08:14:44;13.70;;;8.90;;
36817;SDS011;22761;51.542;16.450;2023-11-21T08:17:12;14.50;;;9.20;;
36817;SDS011;22761;51.542;16.450;2023-11-21T08:19:45;16.00;;;10.00;;
36817;SDS011;22761;51.542;16.450;2023-11-21T08:22:17;16.80;;;9.90;;
36817;SDS011;22761;51.542;16.450;2023-11-21T08:24:46;13.70;;;10.10;;
36817;SDS011;22761;51.542;16.450;2023-11-21T08:27:14;17.60;;;10.90;;
36817;SDS011;22761;51.542;16.450;2023-11-21T08:29:44;16.20;;;11.30;;
36817;SDS011;22761;51.542;16.450;2023-11-21T08:32:12;16.80;;;11.90;;
36817;SDS011;22761;51.542;16.450;2023-11-21T08:34:40;20.30;;;13.00;;
36817;SDS011;22761;51.542;16.450;2023-11-21T08:37:11;22.00;;;13.80;;
36817;SDS011;22761;51.542;16.450;2023-11-21T08:39:40;22.50;;;14.30;;
36817;SDS011;22761;51.542;16.450;2023-11-21T08:42:10;22.60;;;14.70;;
36817;SDS011;22761;51.542;16.450;2023-11-21T08:44:38;21.40;;;13.20;;
36817;SDS011;22761;51.542;16.450;2023-11-21T08:47:06;19.80;;;13.20;;
36817;SDS011;22761;51.542;16.450;2023-11-21T08:49:36;18.60;;;13.00;;
36817;SDS011;22761;51.542;16.450;2023-11-21T08:52:04;18.50;;;12.90;;
36817;SDS011;22761;51.542;16.450;2023-11-21T08:54:32;21.80;;;13.80;;
36817;SDS011;22761;51.542;16.450;2023-11-21T08:57:02;20.50;;;14.20;;
36817;SDS011;22761;51.542;16.450;2023-11-21T08:59:31;21.60;;;14.50;;
36817;SDS011;22761;51.542;16.450;2023-11-21T09:01:59;23.90;;;13.90;;
36817;SDS011;22761;51.542;16.450;2023-11-21T09:04:27;21.90;;;13.80;;
36817;SDS011;22761;51.542;16.450;2023-11-21T09:06:56;21.20;;;14.30;;
36817;SDS011;22761;51.542;16.450;2023-11-21T09:09:24;19.60;;;13.70;;
36817;SDS011;22761;51.542;16.450;2023-11-21T09:11:53;20.60;;;13.50;;
36817;SDS011;22761;51.542;16.450;2023-11-21T09:14:21;21.30;;;13.60;;
36817;SDS011;22761;51.542;16.450;2023-11-21T09:16:49;20.20;;;14.30;;
36817;SDS011;22761;51.542;16.450;2023-11-21T09:19:18;19.30;;;13.90;;
36817;SDS011;22761;51.542;16.450;2023-11-21T09:21:47;22.60;;;14.80;;
36817;SDS011;22761;51.542;16.450;2023-11-21T09:24:15;22.20;;;15.20;;
36817;SDS011;22761;51.542;16.450;2023-11-21T09:26:43;21.10;;;13.90;;
36817;SDS011;22761;51.542;16.450;2023-11-21T09:29:13;20.30;;;13.90;;
36817;SDS011;22761;51.542;16.450;2023-11-21T09:31:41;19.30;;;14.00;;
36817;SDS011;22761;51.542;16.450;2023-11-21T09:34:12;19.00;;;13.60;;
36817;SDS011;22761;51.542;16.450;2023-11-21T09:36:40;17.30;;;12.70;;
36817;SDS011;22761;51.542;16.450;2023-11-21T09:39:09;16.30;;;11.50;;
36817;SDS011;22761;51.542;16.450;2023-11-21T09:41:40;18.10;;;12.50;;
36817;SDS011;22761;51.542;16.450;2023-11-21T09:47:09;17.40;;;12.40;;
36817;SDS011;22761;51.542;16.450;2023-11-21T09:49:38;15.20;;;12.00;;
36817;SDS011;22761;51.542;16.450;2023-11-21T09:52:08;21.00;;;13.60;;
36817;SDS011;22761;51.542;16.450;2023-11-21T09:54:37;16.70;;;12.20;;
36817;SDS011;22761;51.542;16.450;2023-11-21T09:57:05;20.80;;;13.90;;
36817;SDS011;22761;51.542;16.450;2023-11-21T09:59:33;20.90;;;13.60;;
36817;SDS011;22761;51.542;16.450;2023-11-21T10:02:04;17.90;;;13.10;;
36817;SDS011;22761;51.542;16.450;2023-11-21T10:04:32;16.70;;;13.00;;
36817;SDS011;22761;51.542;16.450;2023-11-21T10:07:01;19.40;;;14.60;;
36817;SDS011;22761;51.542;16.450;2023-11-21T10:09:31;23.00;;;14.60;;
36817;SDS011;22761;51.542;16.450;2023-11-21T10:12:00;19.50;;;13.90;;
36817;SDS011;22761;51.542;16.450;2023-11-21T10:14:28;23.10;;;15.40;;
36817;SDS011;22761;51.542;16.450;2023-11-21T10:16:57;21.20;;;15.50;;
36817;SDS011;22761;51.542;16.450;2023-11-21T10:19:26;24.10;;;17.00;;
36817;SDS011;22761;51.542;16.450;2023-11-21T10:21:55;23.20;;;17.40;;
36817;SDS011;22761;51.542;16.450;2023-11-21T10:24:25;23.30;;;18.30;;
36817;SDS011;22761;51.542;16.450;2023-11-21T10:26:55;23.50;;;16.80;;
36817;SDS011;22761;51.542;16.450;2023-11-21T10:29:23;20.60;;;15.90;;
36817;SDS011;22761;51.542;16.450;2023-11-21T10:31:51;18.60;;;14.20;;
36817;SDS011;22761;51.542;16.450;2023-11-21T10:34:23;19.50;;;14.20;;
36817;SDS011;22761;51.542;16.450;2023-11-21T10:36:51;15.60;;;11.90;;
36817;SDS011;22761;51.542;16.450;2023-11-21T10:39:20;15.50;;;10.40;;
36817;SDS011;22761;51.542;16.450;2023-11-21T10:41:52;15.70;;;11.10;;
36817;SDS011;22761;51.542;16.450;2023-11-21T10:44:20;14.60;;;11.60;;
36817;SDS011;22761;51.542;16.450;2023-11-21T10:46:50;19.40;;;13.40;;
36817;SDS011;22761;51.542;16.450;2023-11-21T10:49:20;14.80;;;12.40;;
36817;SDS011;22761;51.542;16.450;2023-11-21T10:51:48;17.00;;;13.30;;
36817;SDS011;22761;51.542;16.450;2023-11-21T10:54:22;15.00;;;12.70;;
36817;SDS011;22761;51.542;16.450;2023-11-21T10:56:57;14.80;;;11.40;;
36817;SDS011;22761;51.542;16.450;2023-11-21T10:59:30;13.50;;;10.50;;
36817;SDS011;22761;51.542;16.450;2023-11-21T11:02:01;13.20;;;10.50;;
36817;SDS011;22761;51.542;16.450;2023-11-21T11:04:32;10.80;;;9.40;;
36817;SDS011;22761;51.542;16.450;2023-11-21T11:07:02;11.30;;;9.70;;
36817;SDS011;22761;51.542;16.450;2023-11-21T11:09:33;12.60;;;10.20;;
36817;SDS011;22761;51.542;16.450;2023-11-21T11:12:04;12.20;;;9.90;;
36817;SDS011;22761;51.542;16.450;2023-11-21T11:14:34;12.00;;;9.40;;
36817;SDS011;22761;51.542;16.450;2023-11-21T11:17:02;12.50;;;9.70;;
36817;SDS011;22761;51.542;16.450;2023-11-21T11:19:34;12.00;;;9.40;;
36817;SDS011;22761;51.542;16.450;2023-11-21T11:28:20;10.70;;;8.40;;
36817;SDS011;22761;51.542;16.450;2023-11-21T11:31:37;12.80;;;9.70;;
36817;SDS011;22761;51.542;16.450;2023-11-21T11:33:59;11.40;;;9.90;;
36817;SDS011;22761;51.542;16.450;2023-11-21T11:36:37;11.70;;;10.00;;
36817;SDS011;22761;51.542;16.450;2023-11-21T11:39:31;12.10;;;9.90;;
36817;SDS011;22761;51.542;16.450;2023-11-21T11:42:06;10.90;;;9.30;;
36817;SDS011;22761;51.542;16.450;2023-11-21T11:47:21;9.80;;;8.80;;
36817;SDS011;22761;51.542;16.450;2023-11-21T11:49:57;10.80;;;8.80;;
36817;SDS011;22761;51.542;16.450;2023-11-21T11:52:39;10.30;;;9.00;;
36817;SDS011;22761;51.542;16.450;2023-11-21T11:55:09;11.00;;;9.60;;
36817;SDS011;22761;51.542;16.450;2023-11-21T11:57:49;11.50;;;9.10;;
36817;SDS011;22761;51.542;16.450;2023-11-21T12:02:55;7.90;;;7.10;;
36817;SDS011;22761;51.542;16.450;2023-11-21T12:05:28;9.60;;;7.90;;
36817;SDS011;22761;51.542;16.450;2023-11-21T12:08:04;8.80;;;7.90;;
36817;SDS011;22761;51.542;16.450;2023-11-21T12:10:35;8.60;;;7.50;;
36817;SDS011;22761;51.542;16.450;2023-11-21T12:13:08;8.20;;;7.00;;
36817;SDS011;22761;51.542;16.450;2023-11-21T12:15:38;7.90;;;6.60;;
36817;SDS011;22761;51.542;16.450;2023-11-21T12:18:08;8.10;;;6.60;;
36817;SDS011;22761;51.542;16.450;2023-11-21T12:20:36;9.70;;;7.60;;
36817;SDS011;22761;51.542;16.450;2023-11-21T12:23:07;9.90;;;8.30;;
36817;SDS011;22761;51.542;16.450;2023-11-21T12:25:37;11.00;;;8.70;;
36817;SDS011;22761;51.542;16.450;2023-11-21T12:28:10;14.10;;;9.30;;
36817;SDS011;22761;51.542;16.450;2023-11-21T12:30:40;11.30;;;8.00;;
36817;SDS011;22761;51.542;16.450;2023-11-21T12:33:08;10.80;;;9.10;;
36817;SDS011;22761;51.542;16.450;2023-11-21T12:35:38;12.60;;;10.80;;
36817;SDS011;22761;51.542;16.450;2023-11-21T12:38:06;12.20;;;9.80;;
36817;SDS011;22761;51.542;16.450;2023-11-21T12:40:37;13.20;;;10.20;;
36817;SDS011;22761;51.542;16.450;2023-11-21T12:43:06;12.50;;;10.40;;
36817;SDS011;22761;51.542;16.450;2023-11-21T12:45:35;13.20;;;11.70;;
36817;SDS011;22761;51.542;16.450;2023-11-21T12:48:06;13.40;;;11.00;;
36817;SDS011;22761;51.542;16.450;2023-11-21T12:50:39;13.70;;;11.60;;
36817;SDS011;22761;51.542;16.450;2023-11-21T12:53:08;16.10;;;13.00;;
36817;SDS011;22761;51.542;16.450;2023-11-21T12:55:40;15.90;;;13.70;;
36817;SDS011;22761;51.542;16.450;2023-11-21T12:58:11;18.40;;;14.70;;
36817;SDS011;22761;51.542;16.450;2023-11-21T13:03:16;21.30;;;16.50;;
36817;SDS011;22761;51.542;16.450;2023-11-21T13:05:48;19.70;;;15.50;;
36817;SDS011;22761;51.542;16.450;2023-11-21T13:08:22;20.20;;;16.20;;
36817;SDS011;22761;51.542;16.450;2023-11-21T13:13:23;24.00;;;18.00;;
36817;SDS011;22761;51.542;16.450;2023-11-21T13:15:54;25.20;;;18.90;;
36817;SDS011;22761;51.542;16.450;2023-11-21T13:18:28;23.30;;;17.30;;
36817;SDS011;22761;51.542;16.450;2023-11-21T13:20:59;25.20;;;19.70;;
36817;SDS011;22761;51.542;16.450;2023-11-21T13:23:34;28.00;;;20.90;;
36817;SDS011;22761;51.542;16.450;2023-11-21T13:26:04;27.10;;;20.30;;
36817;SDS011;22761;51.542;16.450;2023-11-21T13:28:35;30.50;;;21.40;;
36817;SDS011;22761;51.542;16.450;2023-11-21T13:31:05;26.10;;;20.50;;
36817;SDS011;22761;51.542;16.450;2023-11-21T13:33:39;27.30;;;20.40;;
36817;SDS011;22761;51.542;16.450;2023-11-21T13:36:09;27.20;;;20.10;;
36817;SDS011;22761;51.542;16.450;2023-11-21T13:38:38;27.10;;;20.00;;
36817;SDS011;22761;51.542;16.450;2023-11-21T13:41:11;24.20;;;18.10;;
36817;SDS011;22761;51.542;16.450;2023-11-21T13:43:42;25.10;;;20.30;;
36817;SDS011;22761;51.542;16.450;2023-11-21T13:46:16;24.20;;;19.80;;
36817;SDS011;22761;51.542;16.450;2023-11-21T13:48:50;30.40;;;20.80;;
36817;SDS011;22761;51.542;16.450;2023-11-21T13:51:24;27.30;;;19.40;;
36817;SDS011;22761;51.542;16.450;2023-11-21T13:54:07;27.90;;;20.90;;
36817;SDS011;22761;51.542;16.450;2023-11-21T13:56:38;29.10;;;20.30;;
36817;SDS011;22761;51.542;16.450;2023-11-21T13:59:09;27.40;;;20.50;;
36817;SDS011;22761;51.542;16.450;2023-11-21T14:01:44;25.60;;;19.60;;
36817;SDS011;22761;51.542;16.450;2023-11-21T14:04:23;22.80;;;16.50;;
36817;SDS011;22761;51.542;16.450;2023-11-21T14:06:58;19.30;;;15.10;;
36817;SDS011;22761;51.542;16.450;2023-11-21T14:12:12;23.10;;;17.00;;
36817;SDS011;22761;51.542;16.450;2023-11-21T14:14:41;25.50;;;18.70;;
36817;SDS011;22761;51.542;16.450;2023-11-21T14:17:09;22.10;;;17.30;;
36817;SDS011;22761;51.542;16.450;2023-11-21T14:19:38;23.80;;;18.10;;
36817;SDS011;22761;51.542;16.450;2023-11-21T14:22:12;25.20;;;19.10;;
36817;SDS011;22761;51.542;16.450;2023-11-21T14:24:41;27.50;;;20.80;;
36817;SDS011;22761;51.542;16.450;2023-11-21T14:27:13;27.20;;;20.90;;
36817;SDS011;22761;51.542;16.450;2023-11-21T14:29:43;28.60;;;21.10;;
36817;SDS011;22761;51.542;16.450;2023-11-21T14:32:13;26.80;;;20.70;;
36817;SDS011;22761;51.542;16.450;2023-11-21T14:34:42;28.80;;;20.80;;
36817;SDS011;22761;51.542;16.450;2023-11-21T14:37:15;30.10;;;23.00;;
36817;SDS011;22761;51.542;16.450;2023-11-21T14:39:43;26.10;;;20.50;;
36817;SDS011;22761;51.542;16.450;2023-11-21T14:42:17;29.40;;;22.50;;
36817;SDS011;22761;51.542;16.450;2023-11-21T14:44:52;27.30;;;20.90;;
36817;SDS011;22761;51.542;16.450;2023-11-21T14:47:23;26.50;;;20.50;;
36817;SDS011;22761;51.542;16.450;2023-11-21T14:49:55;30.20;;;21.60;;
36817;SDS011;22761;51.542;16.450;2023-11-21T14:52:28;26.80;;;20.00;;
36817;SDS011;22761;51.542;16.450;2023-11-21T14:55:04;28.90;;;20.80;;
36817;SDS011;22761;51.542;16.450;2023-11-21T14:57:51;28.20;;;21.30;;
36817;SDS011;22761;51.542;16.450;2023-11-21T15:00:19;22.70;;;18.80;;
36817;SDS011;22761;51.542;16.450;2023-11-21T15:03:04;29.00;;;20.90;;